createdAt,value
2022-07-26T00:02:01.650Z,1.30
2022-07-26T00:05:04.578Z,1.55
2022-07-26T00:08:11.704Z,1.48
2022-07-26T00:11:15.719Z,1.10
2022-07-26T00:14:18.332Z,1.38
2022-07-26T00:17:21.055Z,1.00
2022-07-26T00:20:23.722Z,1.10
2022-07-26T00:23:30.574Z,1.63
2022-07-26T00:26:34.947Z,1.13
2022-07-26T00:29:37.808Z,1.30
2022-07-26T00:32:40.712Z,1.35
2022-07-26T00:35:43.406Z,1.30
2022-07-26T00:38:46.005Z,2.42
2022-07-26T00:41:49.960Z,1.67
2022-07-26T00:44:52.668Z,1.30
2022-07-26T00:47:55.462Z,1.52
2022-07-26T00:50:58.591Z,1.30
2022-07-26T00:54:01.266Z,1.73
2022-07-26T00:57:08.817Z,1.60
2022-07-26T01:00:13.173Z,1.30
2022-07-26T01:03:15.805Z,1.30
2022-07-26T01:06:18.461Z,1.30
2022-07-26T01:09:21.137Z,1.42
2022-07-26T01:12:25.084Z,1.40
2022-07-26T01:15:27.716Z,1.25
2022-07-26T01:18:30.310Z,1.20
2022-07-26T01:21:35.088Z,1.48
2022-07-26T01:24:38.038Z,1.52
2022-07-26T01:27:40.751Z,1.20
2022-07-26T01:30:43.364Z,1.85
2022-07-26T01:33:46.080Z,2.03
2022-07-26T01:36:50.695Z,1.50
2022-07-26T01:42:55.917Z,1.50
2022-07-26T01:46:00.114Z,1.27
2022-07-26T01:49:03.306Z,1.70
2022-07-26T01:52:07.611Z,1.30
2022-07-26T01:55:10.782Z,1.33
2022-07-26T01:58:13.389Z,1.48
2022-07-26T02:01:16.182Z,1.50
2022-07-26T02:04:56.116Z,1.30
2022-07-26T02:08:00.101Z,1.85
2022-07-26T02:11:03.627Z,2.20
2022-07-26T02:14:06.967Z,1.73
2022-07-26T02:17:09.866Z,1.30
2022-07-26T02:20:13.005Z,1.60
2022-07-26T02:23:17.099Z,1.58
2022-07-26T02:26:19.738Z,1.58
2022-07-26T02:29:22.423Z,2.25
2022-07-26T02:32:25.018Z,2.17
2022-07-26T02:35:27.647Z,2.22
2022-07-26T02:38:31.573Z,2.42
2022-07-26T02:41:34.281Z,1.95
2022-07-26T02:44:36.988Z,2.13
2022-07-26T02:47:46.206Z,2.05
2022-07-26T02:50:48.915Z,2.17
2022-07-26T02:53:53.870Z,3.40
2022-07-26T02:56:56.817Z,2.00
2022-07-26T02:59:59.557Z,2.70
2022-07-26T03:03:02.270Z,3.08
2022-07-26T03:06:05.083Z,2.17
2022-07-26T03:09:09.084Z,2.70
2022-07-26T03:12:11.808Z,2.33
2022-07-26T03:15:14.521Z,2.33
2022-07-26T03:18:17.134Z,2.42
2022-07-26T03:21:19.748Z,2.97
2022-07-26T03:24:23.729Z,2.38
2022-07-26T03:30:29.510Z,2.38
2022-07-26T03:33:32.209Z,2.15
2022-07-26T03:36:34.861Z,2.70
2022-07-26T03:39:39.038Z,2.60
2022-07-26T03:42:41.740Z,2.47
2022-07-26T03:45:44.813Z,2.90
2022-07-26T03:48:47.526Z,2.78
2022-07-26T03:51:50.399Z,2.28
2022-07-26T03:54:54.406Z,2.72
2022-07-26T03:57:56.214Z,2.25
2022-07-26T04:00:58.934Z,2.80
2022-07-26T04:04:02.031Z,2.17
2022-07-26T04:07:04.715Z,2.83
2022-07-26T04:10:10.460Z,2.92
2022-07-26T04:13:13.077Z,4.53
2022-07-26T04:16:15.695Z,3.85
2022-07-26T04:19:18.406Z,3.38
2022-07-26T04:22:21.067Z,3.47
2022-07-26T04:25:25.329Z,3.78
2022-07-26T04:28:40.246Z,3.10
2022-07-26T04:31:43.280Z,3.58
2022-07-26T04:34:46.072Z,4.43
2022-07-26T04:37:48.681Z,3.80
2022-07-26T04:40:52.997Z,3.90
2022-07-26T04:43:56.212Z,3.90
2022-07-26T04:46:59.026Z,4.13
2022-07-26T04:50:01.746Z,6.43
2022-07-26T04:53:04.557Z,4.65
2022-07-26T04:56:08.868Z,4.50
2022-07-26T04:59:11.481Z,4.78
2022-07-26T05:02:15.162Z,4.32
2022-07-26T05:05:17.899Z,4.73
2022-07-26T05:08:20.727Z,5.30
2022-07-26T05:11:24.908Z,4.60
2022-07-26T05:14:27.651Z,3.95
2022-07-26T05:17:31.163Z,4.93
2022-07-26T05:20:37.977Z,4.18
2022-07-26T05:23:40.516Z,5.30
2022-07-26T05:26:44.508Z,4.72
2022-07-26T05:29:48.216Z,4.38
2022-07-26T05:32:50.832Z,4.80
2022-07-26T05:35:53.524Z,4.30
2022-07-26T05:38:56.256Z,3.63
2022-07-26T05:42:00.269Z,4.05
2022-07-26T05:45:03.084Z,5.05
2022-07-26T05:48:05.996Z,4.20
2022-07-26T05:51:08.937Z,3.90
2022-07-26T05:54:11.878Z,3.80
2022-07-26T05:57:16.141Z,3.83
2022-07-26T06:00:20.779Z,3.67
2022-07-26T06:06:25.803Z,4.50
2022-07-26T06:09:28.489Z,5.13
2022-07-26T06:12:32.428Z,4.38
2022-07-26T06:15:35.117Z,4.80
2022-07-26T06:18:37.727Z,5.10
2022-07-26T06:21:42.419Z,5.28
2022-07-26T06:24:45.121Z,5.43
2022-07-26T06:27:49.041Z,4.85
2022-07-26T06:30:51.686Z,4.78
2022-07-26T06:33:54.245Z,5.00
2022-07-26T06:36:56.910Z,5.35
2022-07-26T06:40:01.573Z,6.18
2022-07-26T06:43:05.669Z,5.63
2022-07-26T06:46:08.392Z,5.80
2022-07-26T06:49:11.191Z,6.68
2022-07-26T06:52:13.884Z,6.25
2022-07-26T06:55:16.598Z,6.57
2022-07-26T06:58:20.600Z,6.65
2022-07-26T07:01:58.500Z,6.25
2022-07-26T07:04:46.033Z,7.53
2022-07-26T07:07:48.685Z,6.93
2022-07-26T07:10:51.661Z,7.75
2022-07-26T07:13:56.185Z,8.98
2022-07-26T07:16:59.483Z,9.85
2022-07-26T07:20:03.795Z,10.65
2022-07-26T07:23:06.520Z,11.77
2022-07-26T07:26:09.143Z,10.13
2022-07-26T07:29:14.732Z,9.85
2022-07-26T07:32:18.835Z,9.65
2022-07-26T07:35:22.574Z,10.18
2022-07-26T07:38:25.177Z,9.05
2022-07-26T07:41:27.789Z,8.07
2022-07-26T07:44:31.804Z,8.27
2022-07-26T07:47:34.818Z,7.30
2022-07-26T07:50:37.428Z,6.05
2022-07-26T07:53:40.271Z,5.20
2022-07-26T07:56:56.163Z,5.72
2022-07-26T08:00:00.131Z,4.80
2022-07-26T08:03:02.890Z,4.88
2022-07-26T08:06:06.552Z,5.30
2022-07-26T08:09:09.720Z,4.60
2022-07-26T08:12:17.273Z,4.78
2022-07-26T08:15:21.948Z,4.45
2022-07-26T08:18:32.342Z,4.45
2022-07-26T08:21:37.464Z,3.50
2022-07-26T08:24:40.553Z,2.72
2022-07-26T08:27:43.495Z,2.15
2022-07-26T08:30:49.503Z,2.50
2022-07-26T08:33:52.316Z,2.58
2022-07-26T08:37:15.964Z,2.72
2022-07-26T08:40:18.113Z,2.03
2022-07-26T08:43:20.934Z,2.47
2022-07-26T08:46:27.539Z,1.92
2022-07-26T08:49:30.763Z,2.22
2022-07-26T08:52:33.481Z,2.00
2022-07-26T08:56:04.400Z,1.40
2022-07-26T08:58:59.325Z,1.90
2022-07-26T09:02:04.167Z,1.73
2022-07-26T09:05:07.252Z,1.70
2022-07-26T09:08:23.569Z,1.90
2022-07-26T09:11:29.880Z,1.80
2022-07-26T09:14:36.998Z,2.00
2022-07-26T09:17:42.014Z,2.22
2022-07-26T09:20:47.643Z,1.60
2022-07-26T09:23:50.932Z,2.08
2022-07-26T09:26:57.213Z,1.48
2022-07-26T09:30:05.763Z,1.83
2022-07-26T09:33:09.726Z,1.73
2022-07-26T09:39:14.701Z,1.35
2022-07-26T09:42:28.573Z,1.70
2022-07-26T09:45:33.932Z,1.42
2022-07-26T09:49:09.768Z,2.13
2022-07-26T09:52:02.253Z,2.00
2022-07-26T09:55:09.852Z,1.90
2022-07-26T09:58:19.964Z,1.20
2022-07-26T10:01:23.411Z,1.40
2022-07-26T10:04:27.834Z,1.20
2022-07-26T10:07:30.514Z,1.00
2022-07-26T10:10:35.240Z,1.23
2022-07-26T10:13:39.578Z,0.90
2022-07-26T10:16:42.273Z,1.27
2022-07-26T10:19:47.641Z,1.17
2022-07-26T10:22:51.042Z,1.00
2022-07-26T10:25:53.802Z,1.08
2022-07-26T10:28:56.527Z,1.17
2022-07-26T10:32:15.743Z,1.17
2022-07-26T10:35:32.746Z,1.40
2022-07-26T10:38:35.458Z,1.38
2022-07-26T10:41:39.681Z,1.50
2022-07-26T10:44:44.896Z,1.65
2022-07-26T10:48:06.006Z,1.63
2022-07-26T10:51:24.818Z,1.45
2022-07-26T10:54:27.633Z,1.40
2022-07-26T10:57:30.964Z,1.60
2022-07-26T11:00:34.666Z,1.73
2022-07-26T11:03:39.157Z,1.77
2022-07-26T11:06:45.497Z,2.03
2022-07-26T11:09:48.123Z,1.55
2022-07-26T11:12:59.113Z,1.80
2022-07-26T11:16:02.829Z,1.30
2022-07-26T11:19:13.441Z,2.17
2022-07-26T11:22:17.415Z,1.48
2022-07-26T11:25:22.383Z,0.80
2022-07-26T11:28:25.030Z,1.00
2022-07-26T11:31:49.404Z,0.68
2022-07-26T11:34:58.750Z,0.80
2022-07-26T11:38:11.702Z,1.15
2022-07-26T11:41:15.645Z,0.30
2022-07-26T11:44:19.094Z,0.97
2022-07-26T11:47:25.363Z,0.63
2022-07-26T11:50:28.883Z,0.35
2022-07-26T11:53:37.692Z,0.47
2022-07-26T11:56:41.000Z,0.60
2022-07-26T11:59:45.217Z,0.90
2022-07-26T12:02:51.385Z,0.70
2022-07-26T12:06:02.546Z,0.90
2022-07-26T12:09:06.763Z,0.43
2022-07-26T12:12:10.730Z,0.73
2022-07-26T12:18:25.503Z,1.08
2022-07-26T12:21:38.516Z,0.70
2022-07-26T12:24:43.973Z,0.80
2022-07-26T12:27:48.252Z,1.23
2022-07-26T12:30:51.014Z,0.60
2022-07-26T12:33:53.770Z,0.93
2022-07-26T12:36:56.508Z,0.68
2022-07-26T12:40:01.726Z,1.05
2022-07-26T12:43:04.494Z,1.27
2022-07-26T12:46:07.455Z,1.15
2022-07-26T12:49:12.259Z,1.02
2022-07-26T12:52:15.850Z,0.85
2022-07-26T12:55:21.559Z,0.60
2022-07-26T12:58:24.201Z,0.40
2022-07-26T13:01:26.895Z,0.57
2022-07-26T13:04:29.637Z,0.52
2022-07-26T13:07:32.517Z,0.73
2022-07-26T13:10:36.934Z,0.90
2022-07-26T13:13:39.698Z,0.90
2022-07-26T13:16:42.334Z,0.50
2022-07-26T13:19:45.114Z,0.60
2022-07-26T13:22:47.883Z,0.88
2022-07-26T13:25:51.877Z,0.80
2022-07-26T13:28:55.052Z,1.73
2022-07-26T13:31:59.394Z,0.77
2022-07-26T13:35:02.049Z,0.60
2022-07-26T13:38:04.717Z,1.27
2022-07-26T13:41:10.031Z,1.30
2022-07-26T13:44:13.228Z,0.85
2022-07-26T13:47:17.726Z,1.40
2022-07-26T13:50:20.508Z,1.27
2022-07-26T13:53:23.217Z,1.20
2022-07-26T13:56:27.231Z,1.00
2022-07-26T13:59:30.053Z,1.08
2022-07-26T14:02:32.817Z,0.98
2022-07-26T14:05:36.188Z,0.90
2022-07-26T14:08:38.768Z,0.80
2022-07-26T14:11:43.014Z,0.98
2022-07-26T14:14:45.714Z,1.00
2022-07-26T14:17:48.338Z,1.10
2022-07-26T14:20:50.945Z,0.80
2022-07-26T14:23:53.785Z,1.55
2022-07-26T14:26:59.441Z,0.93
2022-07-26T14:30:02.489Z,0.80
2022-07-26T14:33:05.983Z,0.75
2022-07-26T14:36:09.912Z,0.90
2022-07-26T14:39:12.650Z,0.60
2022-07-26T14:42:16.645Z,0.75
2022-07-26T14:45:19.367Z,0.80
2022-07-26T14:48:44.150Z,0.82
2022-07-26T14:51:44.936Z,1.00
2022-07-26T14:54:47.650Z,0.90
2022-07-26T14:57:51.912Z,0.90
2022-07-26T15:03:57.272Z,0.52
2022-07-26T15:06:59.879Z,1.42
2022-07-26T15:10:02.678Z,1.27
2022-07-26T15:13:07.779Z,1.83
2022-07-26T15:16:10.650Z,1.40
2022-07-26T15:19:13.395Z,1.10
2022-07-26T15:22:16.195Z,1.63
2022-07-26T15:25:18.918Z,5.22
2022-07-26T15:28:22.880Z,2.13
2022-07-26T15:31:36.568Z,1.98
2022-07-26T15:37:43.829Z,1.60
2022-07-26T15:40:46.784Z,1.20
2022-07-26T15:43:50.975Z,0.68
2022-07-26T15:46:53.919Z,1.00
2022-07-26T15:49:57.625Z,0.82
2022-07-26T15:53:00.299Z,0.63
2022-07-26T15:56:03.652Z,0.60
2022-07-26T15:59:08.342Z,0.55
2022-07-26T16:02:11.043Z,0.60
2022-07-26T16:05:13.790Z,1.70
2022-07-26T16:08:17.003Z,0.95
2022-07-26T16:11:19.661Z,0.50
2022-07-26T16:14:23.671Z,1.40
2022-07-26T16:17:26.543Z,1.17
2022-07-26T16:20:29.266Z,1.27
2022-07-26T16:23:31.907Z,0.50
2022-07-26T16:26:34.685Z,0.70
2022-07-26T16:29:38.721Z,1.15
2022-07-26T16:32:41.522Z,0.73
2022-07-26T16:35:44.214Z,0.90
2022-07-26T16:38:46.844Z,1.15
2022-07-26T16:41:49.445Z,0.85
2022-07-26T16:44:53.564Z,1.20
2022-07-26T16:47:59.899Z,1.10
2022-07-26T16:51:02.814Z,0.95
2022-07-26T16:54:05.719Z,1.42
2022-07-26T16:57:08.887Z,1.40
2022-07-26T17:00:15.667Z,1.30
2022-07-26T17:03:19.357Z,1.13
2022-07-26T17:06:22.194Z,1.17
2022-07-26T17:09:24.904Z,1.65
2022-07-26T17:12:27.838Z,1.00
2022-07-26T17:15:31.902Z,1.42
2022-07-26T17:18:34.517Z,1.42
2022-07-26T17:21:37.158Z,1.30
2022-07-26T17:24:39.757Z,1.08
2022-07-26T17:27:42.420Z,1.27
2022-07-26T17:30:46.369Z,1.20
2022-07-26T17:33:50.440Z,1.20
2022-07-26T17:36:59.499Z,1.00
2022-07-26T17:40:02.187Z,1.05
2022-07-26T17:43:06.226Z,1.55
2022-07-26T17:46:10.411Z,2.10
2022-07-26T17:49:13.516Z,1.55
2022-07-26T17:52:16.665Z,2.33
2022-07-26T17:55:22.388Z,1.80
2022-07-26T17:58:28.214Z,14.07
2022-07-26T18:01:32.380Z,2.38
2022-07-26T18:04:35.143Z,2.17
2022-07-26T18:07:37.732Z,1.55
2022-07-26T18:10:40.352Z,1.50
2022-07-26T18:13:42.925Z,1.65
2022-07-26T18:16:48.337Z,1.13
2022-07-26T18:19:57.009Z,1.90
2022-07-26T18:22:59.711Z,1.90
2022-07-26T18:26:02.323Z,1.30
2022-07-26T18:29:04.982Z,1.40
2022-07-26T18:32:09.080Z,1.60
2022-07-26T18:35:12.507Z,1.55
2022-07-26T18:38:15.202Z,1.83
2022-07-26T18:41:17.958Z,3.42
2022-07-26T18:44:21.936Z,6.95
2022-07-26T18:47:25.984Z,1.85
2022-07-26T18:50:32.217Z,1.38
2022-07-26T18:53:35.048Z,1.80
2022-07-26T18:56:37.737Z,1.38
2022-07-26T18:59:40.345Z,1.60
2022-07-26T19:02:44.990Z,1.15
2022-07-26T19:08:50.109Z,15.23
2022-07-26T19:11:52.731Z,17.48
2022-07-26T19:14:55.380Z,3.13
2022-07-26T19:17:59.481Z,1.30
2022-07-26T19:21:02.189Z,1.70
2022-07-26T19:24:05.330Z,2.25
2022-07-26T19:27:09.414Z,1.42
2022-07-26T19:30:12.512Z,1.40
2022-07-26T19:33:16.838Z,1.30
2022-07-26T19:36:26.141Z,1.70
2022-07-26T19:39:29.189Z,1.40
2022-07-26T19:42:32.115Z,1.50
2022-07-26T19:45:34.688Z,1.40
2022-07-26T19:48:38.989Z,1.33
2022-07-26T19:51:42.209Z,1.20
2022-07-26T19:54:44.810Z,1.58
2022-07-26T19:57:47.436Z,2.17
2022-07-26T20:00:50.153Z,1.73
2022-07-26T20:03:54.275Z,1.13
2022-07-26T20:06:56.891Z,2.92
2022-07-26T20:09:59.604Z,1.20
2022-07-26T20:13:02.246Z,1.38
2022-07-26T20:16:05.557Z,1.40
2022-07-26T20:19:09.728Z,1.13
2022-07-26T20:22:12.558Z,2.00
2022-07-26T20:25:21.190Z,1.10
2022-07-26T20:28:24.176Z,1.42
2022-07-26T20:31:27.002Z,1.35
2022-07-26T20:34:31.204Z,1.15
2022-07-26T20:37:33.917Z,1.00
2022-07-26T20:40:37.085Z,1.50
2022-07-26T20:43:41.828Z,1.35
2022-07-26T20:46:45.557Z,1.40
2022-07-26T20:49:49.582Z,1.02
2022-07-26T20:52:52.217Z,1.45
2022-07-26T20:55:54.889Z,1.00
2022-07-26T20:58:57.533Z,1.33
2022-07-26T21:02:00.195Z,1.10
2022-07-26T21:05:04.506Z,1.00
2022-07-26T21:08:07.321Z,1.33
2022-07-26T21:11:10.009Z,1.10
2022-07-26T21:14:12.682Z,1.13
2022-07-26T21:17:15.367Z,1.25
2022-07-26T21:20:19.775Z,1.35
2022-07-26T21:23:28.033Z,0.93
2022-07-26T21:26:30.828Z,1.20
2022-07-26T21:29:38.103Z,1.10
2022-07-26T21:32:42.271Z,1.60
2022-07-26T21:35:46.430Z,1.63
2022-07-26T21:38:49.390Z,1.23
2022-07-26T21:41:58.074Z,0.88
2022-07-26T21:45:00.820Z,1.00
2022-07-26T21:48:03.522Z,0.80
2022-07-26T21:51:07.647Z,1.02
2022-07-26T21:54:10.256Z,0.85
2022-07-26T21:57:13.077Z,0.80
2022-07-26T22:00:17.014Z,0.70
2022-07-26T22:03:19.805Z,1.13
2022-07-26T22:06:25.026Z,1.00
2022-07-26T22:09:30.333Z,1.00
2022-07-26T22:12:33.052Z,0.90
2022-07-26T22:15:35.982Z,0.82
2022-07-26T22:18:38.989Z,1.40
2022-07-26T22:21:42.949Z,0.80
2022-07-26T22:24:51.592Z,0.80
2022-07-26T22:27:54.779Z,0.85
2022-07-26T22:30:59.655Z,0.90
2022-07-26T22:34:02.450Z,1.00
2022-07-26T22:37:06.432Z,0.82
2022-07-26T22:40:09.978Z,1.02
2022-07-26T22:43:14.863Z,0.43
2022-07-26T22:46:18.143Z,0.70
2022-07-26T22:49:30.375Z,0.80
2022-07-26T22:52:34.406Z,0.85
2022-07-26T22:55:37.030Z,1.20
2022-07-26T22:58:40.567Z,1.25
2022-07-26T23:01:43.283Z,1.08
2022-07-26T23:04:45.998Z,1.48
2022-07-26T23:07:51.418Z,1.05
2022-07-26T23:10:54.140Z,1.00
2022-07-26T23:13:58.778Z,1.20
2022-07-26T23:17:01.977Z,1.10
2022-07-26T23:20:04.968Z,0.90
2022-07-26T23:23:09.100Z,1.20
2022-07-26T23:26:11.888Z,1.00
2022-07-26T23:29:14.919Z,0.90
2022-07-26T23:32:18.213Z,0.70
2022-07-26T23:35:21.737Z,1.48
2022-07-26T23:38:25.754Z,1.05
2022-07-26T23:41:28.605Z,1.05
2022-07-26T23:44:31.418Z,0.93
2022-07-26T23:47:34.188Z,1.20
2022-07-26T23:50:36.902Z,0.80
2022-07-26T23:53:41.148Z,0.93
2022-07-26T23:56:45.558Z,1.15
2022-07-26T23:59:48.679Z,1.15
